Time;durP1;ratioP1;P1;durP2;ratioP2;P2;SDS_P1;SDS_P2;PMS_P1;PMS_P2;Temp;Humidity;BMP_temperature;BMP_pressure;BME280_temperature;BME280_humidity;BME280_pressure;Samples;Min_cycle;Max_cycle;Signal;HPM_P1;HPM_P2
2022/11/02 07:59:57;;;;;;;14.90;2.22;;;;;;;12.63;77.27;97348.53;2085492;27;20913;-73
2022/11/02 08:01:00;;;;;;;11.05;2.45;;;;;;;13.02;75.72;97346.91;2083334;28;20216;-74
2022/11/02 08:06:37;;;;;;;13.57;2.03;;;;;;;13.64;72.24;97349.47;2083914;28;20575;-74
2022/11/02 08:07:39;;;;;;;12.70;1.80;;;;;;;13.91;72.04;97341.22;2081751;28;20201;-74
2022/11/02 08:19:29;;;;;;;14.57;5.80;;;;;;;14.08;71.14;97372.78;2083019;28;20562;-71
2022/11/02 08:36:34;;;;;;;11.70;2.28;;;;;;;13.85;70.97;97371.22;2091091;28;20569;-74
2022/11/02 08:44:52;;;;;;;9.74;1.83;;;;;;;13.43;71.78;97377.50;4191637;27;1270093;-74
2022/11/02 08:45:58;;;;;;;11.43;2.58;;;;;;;13.70;70.55;97367.56;2112386;28;20891;-74
2022/11/02 08:47:17;;;;;;;8.57;1.60;;;;;;;13.71;70.68;97361.38;2112128;28;20198;-74
2022/11/02 10:31:50;;;;;;;8.82;1.60;;;;;;;13.97;65.92;97399.53;2085541;28;20576;-71
2022/11/02 10:33:55;;;;;;;15.05;1.40;;;;;;;13.93;65.62;97387.50;2083562;28;20918;-70
2022/11/02 10:35:02;;;;;;;18.38;2.30;;;;;;;14.35;65.47;97401.31;2078584;28;20243;-70
2022/11/02 10:36:30;;;;;;;10.38;1.45;;;;;;;14.78;64.16;97406.25;2058830;28;20242;-70
2022/11/02 10:37:44;;;;;;;14.55;1.83;;;;;;;15.07;62.56;97403.94;2064695;28;20198;-70
2022/11/02 10:39:07;;;;;;;17.13;2.58;;;;;;;15.32;61.66;97406.16;2062561;28;20281;-70
2022/11/02 10:40:30;;;;;;;6.18;1.80;;;;;;;15.92;60.61;97410.06;2065465;28;20241;-72
2022/11/02 10:41:59;;;;;;;17.30;2.00;;;;;;;16.17;59.29;97401.69;2063650;28;20250;-72
2022/11/02 10:43:17;;;;;;;13.05;3.17;;;;;;;16.00;59.30;97397.34;2065401;28;20187;-72
2022/11/02 10:44:34;;;;;;;10.52;2.03;;;;;;;17.21;56.64;97401.94;2065405;28;20236;-73
2022/11/02 10:45:36;;;;;;;10.73;1.75;;;;;;;16.92;57.02;97396.59;2062431;28;20639;-73
2022/11/02 10:46:52;;;;;;;11.85;2.60;;;;;;;17.12;56.60;97402.50;2062682;28;20230;-73
2022/11/02 10:48:18;;;;;;;12.90;2.22;;;;;;;17.50;54.89;97403.78;2067969;28;20230;-73
2022/11/02 10:49:38;;;;;;;7.60;1.55;;;;;;;17.90;54.29;97401.31;2065717;28;20199;-72
2022/11/02 10:51:02;;;;;;;9.30;1.95;;;;;;;17.77;54.02;97398.59;2076423;28;20644;-73
2022/11/02 10:52:04;;;;;;;12.40;2.25;;;;;;;17.65;54.99;97396.69;2068351;28;20203;-73
2022/11/02 10:53:11;;;;;;;12.55;2.50;;;;;;;17.41;55.58;97377.00;2069778;28;20256;-73
2022/11/02 10:54:32;;;;;;;10.30;2.03;;;;;;;17.45;56.18;97398.78;2066443;28;20256;-73
2022/11/02 10:55:50;;;;;;;17.23;2.20;;;;;;;17.38;55.65;97386.88;2055199;28;20226;-73
2022/11/02 10:56:51;;;;;;;13.82;2.10;;;;;;;16.96;56.62;97390.22;2055072;28;20233;-73
2022/11/02 10:57:56;;;;;;;11.43;3.50;;;;;;;16.55;57.35;97363.56;2054534;28;20238;-73
2022/11/02 10:58:57;;;;;;;10.55;1.80;;;;;;;17.00;56.97;97392.66;2069375;28;20218;-73
2022/11/02 11:00:31;;;;;;;14.30;2.28;;;;;;;17.06;57.36;97390.50;2072195;28;20201;-73
2022/11/02 11:01:33;;;;;;;14.05;2.63;;;;;;;16.93;57.33;97371.06;2048139;28;20969;-73
2022/11/02 11:02:35;;;;;;;10.35;1.70;;;;;;;16.72;57.11;97394.22;2050157;28;20196;-73
2022/11/02 11:04:02;;;;;;;8.73;1.58;;;;;;;16.05;56.69;97387.41;2049131;28;20287;-73
2022/11/02 11:05:13;;;;;;;11.95;1.45;;;;;;;15.56;56.15;97392.66;2049252;28;20703;-72
2022/11/02 11:06:14;;;;;;;8.60;1.40;;;;;;;15.31;56.71;97386.03;2073893;28;20264;-73
2022/11/02 11:07:23;;;;;;;8.57;1.92;;;;;;;15.41;56.43;97387.25;2061979;28;21060;-72
2022/11/02 11:08:43;;;;;;;10.15;1.63;;;;;;;15.58;56.11;97375.88;2051637;28;20309;-73
2022/11/02 11:09:49;;;;;;;37.50;3.75;;;;;;;15.50;55.83;97389.44;2056402;28;20289;-73
2022/11/02 11:10:51;;;;;;;11.73;1.80;;;;;;;15.54;55.33;97381.38;2054109;28;20683;-73
2022/11/02 11:12:01;;;;;;;10.43;2.15;;;;;;;16.14;54.65;97380.78;2055057;28;20226;-73
2022/11/02 11:13:04;;;;;;;6.85;1.40;;;;;;;16.76;53.16;97377.28;2069252;28;20483;-73
2022/11/02 11:14:14;;;;;;;9.90;1.80;;;;;;;17.64;52.41;97385.28;2069643;28;20575;-73
2022/11/02 11:15:36;;;;;;;17.88;2.15;;;;;;;18.31;51.49;97387.31;2056163;28;20230;-73
2022/11/02 11:16:56;;;;;;;8.38;2.22;;;;;;;18.49;49.44;97371.22;2062086;28;20203;-74
2022/11/02 11:18:20;;;;;;;10.75;2.40;;;;;;;19.00;48.69;97394.34;2059261;28;20206;-74
2022/11/02 11:19:49;;;;;;;14.20;1.92;;;;;;;19.87;46.67;97387.50;2065402;28;20381;-74
2022/11/02 11:20:54;;;;;;;10.27;2.08;;;;;;;19.75;46.14;97372.44;2065397;28;20651;-73
2022/11/02 11:21:55;;;;;;;11.30;1.80;;;;;;;18.84;48.29;97383.88;2063966;28;20231;-74
2022/11/02 11:23:23;;;;;;;11.18;2.50;;;;;;;18.96;47.43;97387.53;2064378;28;20230;-73
2022/11/02 11:24:30;;;;;;;6.57;2.20;;;;;;;18.74;47.83;97383.66;2063932;28;20337;-73
2022/11/02 11:25:31;;;;;;;19.60;2.55;;;;;;;19.04;47.57;97367.56;2061890;28;20260;-73
2022/11/02 11:26:33;;;;;;;17.45;1.90;;;;;;;19.19;46.50;97376.25;2062955;28;20311;-72
2022/11/02 11:27:44;;;;;;;10.35;2.03;;;;;;;18.43;47.71;97390.94;2066880;28;20247;-73
2022/11/02 11:28:55;;;;;;;7.68;2.03;;;;;;;17.27;49.32;97391.03;2064361;28;20195;-74
2022/11/02 11:29:58;;;;;;;10.85;1.88;;;;;;;16.81;50.78;97368.19;2063312;28;20674;-74
2022/11/02 11:31:15;;;;;;;12.57;1.92;;;;;;;16.38;50.84;97391.75;2061955;28;20238;-73
2022/11/02 11:32:19;;;;;;;13.27;1.88;;;;;;;15.58;52.50;97380.25;2063617;28;20603;-73
2022/11/02 11:33:21;;;;;;;10.88;1.90;;;;;;;16.75;50.22;97387.00;2062999;28;20262;-73
2022/11/02 11:34:30;;;;;;;8.48;1.55;;;;;;;17.11;49.51;97385.78;2063241;28;20226;-74
2022/11/02 11:35:37;;;;;;;14.65;2.67;;;;;;;16.07;50.94;97382.06;2063081;28;20203;-73
2022/11/02 11:36:39;;;;;;;10.88;1.95;;;;;;;16.93;50.59;97364.00;2065420;28;20259;-73
2022/11/02 11:37:53;;;;;;;9.75;1.90;;;;;;;16.98;50.58;97384.84;2063522;28;20202;-73
2022/11/02 11:38:59;;;;;;;14.48;2.00;;;;;;;18.06;48.36;97377.47;2065234;28;20653;-73
2022/11/02 11:40:15;;;;;;;22.23;2.70;;;;;;;18.51;46.83;97377.22;2066315;28;20673;-74
2022/11/02 11:41:17;;;;;;;10.85;2.20;;;;;;;18.68;46.52;97366.41;2064300;28;20889;-74
2022/11/02 11:42:22;;;;;;;9.32;1.60;;;;;;;18.15;47.59;97379.50;2065482;28;20199;-74
2022/11/02 11:43:29;;;;;;;12.48;2.25;;;;;;;17.88;48.01;97377.63;2064507;28;20238;-74
2022/11/02 11:44:31;;;;;;;8.38;1.98;;;;;;;18.91;46.29;97375.47;2064649;28;20198;-74
2022/11/02 11:45:32;;;;;;;12.82;2.58;;;;;;;19.42;45.09;97374.66;2059169;28;20231;-73
2022/11/02 11:46:44;;;;;;;12.52;2.30;;;;;;;18.25;47.24;97383.25;2060250;28;20208;-74
2022/11/02 11:47:51;;;;;;;14.65;2.40;;;;;;;18.49;45.99;97358.81;2058043;28;20238;-74
2022/11/02 11:48:56;;;;;;;8.38;1.38;;;;;;;18.30;46.07;97363.59;2056073;28;20243;-73
2022/11/02 11:50:02;;;;;;;13.32;2.00;;;;;;;19.02;45.36;97350.09;2065405;28;20636;-74
2022/11/02 11:51:33;;;;;;;9.18;1.70;;;;;;;19.19;44.75;97363.03;2061822;28;20590;-74
2022/11/02 11:52:35;;;;;;;6.97;2.25;;;;;;;19.51;44.17;97362.59;2057645;28;20291;-74
2022/11/02 11:53:37;;;;;;;11.95;2.17;;;;;;;19.03;44.52;97363.22;2055675;28;20955;-73
2022/11/02 11:54:39;;;;;;;8.75;2.22;;;;;;;18.40;45.51;97331.19;2060412;28;20239;-73
2022/11/02 11:55:49;;;;;;;6.63;1.63;;;;;;;18.17;46.26;97356.50;2057354;28;20248;-73
2022/11/02 11:56:56;;;;;;;27.00;3.10;;;;;;;18.55;45.46;97347.84;2058030;28;20845;-73
2022/11/02 11:58:19;;;;;;;9.43;1.90;;;;;;;18.99;45.33;97356.44;2059296;28;20291;-74
2022/11/02 11:59:45;;;;;;;10.13;1.70;;;;;;;18.69;45.07;97359.28;2055743;28;20714;-73
2022/11/02 12:01:11;;;;;;;9.13;2.05;;;;;;;19.09;44.41;97352.19;2059514;28;20223;-74
2022/11/02 12:02:36;;;;;;;13.93;2.30;;;;;;;19.30;44.49;97350.84;2057295;28;20214;-73
2022/11/02 12:03:59;;;;;;;9.43;1.85;;;;;;;18.71;45.20;97347.66;2058729;28;20204;-73
2022/11/02 12:05:16;;;;;;;7.47;1.77;;;;;;;18.41;45.98;97338.19;2056152;28;20242;-73
2022/11/02 12:06:17;;;;;;;12.30;2.33;;;;;;;18.80;45.81;97350.66;2050515;28;20231;-73
2022/11/02 12:07:40;;;;;;;11.52;1.85;;;;;;;18.36;45.80;97340.28;2058537;28;20783;-72
2022/11/02 12:08:44;;;;;;;14.00;1.83;;;;;;;18.36;45.86;97350.84;2057592;28;20235;-73
2022/11/02 12:10:00;;;;;;;14.05;2.50;;;;;;;18.87;45.69;97346.66;2053139;28;20677;-73
2022/11/02 12:11:46;;;;;;;10.05;1.75;;;;;;;18.36;44.57;97348.22;2060149;28;20926;-72
2022/11/02 12:13:16;;;;;;;8.20;1.45;;;;;;;18.37;45.22;97326.13;2060269;28;20244;-73
2022/11/02 12:14:37;;;;;;;16.63;2.50;;;;;;;17.95;45.87;97327.94;2055507;28;20311;-74
2022/11/02 12:15:59;;;;;;;9.52;1.80;;;;;;;18.00;45.70;97331.13;2058770;28;20338;-73
2022/11/02 12:17:07;;;;;;;8.65;2.40;;;;;;;18.17;46.05;97331.84;2058816;28;20358;-73
2022/11/02 12:18:27;;;;;;;11.52;2.05;;;;;;;17.99;45.71;97326.81;2056931;28;20211;-73
2022/11/02 12:19:53;;;;;;;12.88;2.13;;;;;;;17.24;45.78;97322.59;2057720;28;20360;-72
2022/11/02 12:21:04;;;;;;;13.48;2.00;;;;;;;17.13;46.55;97323.25;2057908;28;20838;-74
2022/11/02 12:22:16;;;;;;;6.68;1.88;;;;;;;17.57;46.93;97316.19;2060670;28;20235;-73
2022/11/02 12:23:24;;;;;;;6.63;1.80;;;;;;;17.39;46.28;97294.38;2059542;28;20199;-73
2022/11/02 12:24:40;;;;;;;20.55;2.38;;;;;;;18.38;46.29;97319.03;2058234;28;20226;-74
2022/11/02 12:26:05;;;;;;;15.40;3.08;;;;;;;18.80;44.77;97310.97;2056255;28;20231;-74
2022/11/02 12:27:25;;;;;;;10.48;1.75;;;;;;;18.70;44.85;97308.97;2055250;28;21006;-73
2022/11/02 12:28:36;;;;;;;10.63;2.20;;;;;;;18.68;44.79;97315.31;2057281;28;20323;-73
2022/11/02 12:30:00;;;;;;;8.98;1.80;;;;;;;18.84;44.34;97310.69;2055705;28;20228;-73
2022/11/02 12:31:37;;;;;;;16.42;1.90;;;;;;;18.84;44.58;97320.41;2054201;28;20228;-76
2022/11/02 12:33:02;;;;;;;16.75;7.40;;;;;;;18.69;45.27;97316.97;2057635;28;20200;-77
2022/11/02 12:34:26;;;;;;;7.78;2.05;;;;;;;19.46;44.48;97322.34;2059562;28;20245;-72
2022/11/02 12:35:43;;;;;;;9.27;2.20;;;;;;;19.69;43.43;97309.28;2055994;28;20555;-76
2022/11/02 12:37:08;;;;;;;10.55;2.20;;;;;;;19.84;42.84;97313.50;2058480;28;20338;-73
2022/11/02 12:38:48;;;;;;;7.82;1.58;;;;;;;20.23;42.40;97314.22;2058786;28;20647;-75
2022/11/02 12:40:08;;;;;;;12.95;2.45;;;;;;;19.77;43.13;97314.03;2056395;28;20247;-77
2022/11/02 12:41:12;;;;;;;12.02;1.80;;;;;;;19.31;43.78;97310.19;2065755;28;20237;-77
2022/11/02 12:42:23;;;;;;;6.63;2.00;;;;;;;19.50;44.03;97307.94;2064589;28;20202;-77
2022/11/02 12:43:30;;;;;;;8.27;1.60;;;;;;;19.72;43.44;97309.91;2057714;28;21066;-76
2022/11/02 12:44:55;;;;;;;9.00;2.03;;;;;;;19.56;43.85;97315.44;2057816;28;20878;-77
2022/11/02 12:46:25;;;;;;;13.05;2.08;;;;;;;18.65;45.22;97326.06;2057425;28;20333;-74
2022/11/02 12:47:55;;;;;;;8.20;1.90;;;;;;;18.32;45.49;97308.84;2056323;28;20232;-76
2022/11/02 12:49:32;;;;;;;7.55;1.60;;;;;;;19.04;44.39;97316.44;2059553;28;20271;-76
2022/11/02 12:50:56;;;;;;;16.73;1.85;;;;;;;18.98;44.44;97304.47;2059214;28;20442;-77
2022/11/02 12:52:03;;;;;;;13.73;2.47;;;;;;;19.57;44.67;97316.31;2058014;28;20200;-77
2022/11/02 12:53:30;;;;;;;17.90;2.65;;;;;;;19.88;45.84;97315.00;2058270;28;20239;-74
2022/11/02 12:54:43;;;;;;;20.55;8.63;;;;;;;20.43;45.71;97316.38;2065285;28;20225;-73
2022/11/02 12:55:49;;;;;;;22.00;6.60;;;;;;;20.92;45.41;97315.34;2064803;28;20261;-73
2022/11/02 12:56:52;;;;;;;17.05;3.78;;;;;;;20.70;45.32;97311.69;2057797;28;20253;-74
2022/11/02 12:58:00;;;;;;;14.30;4.10;;;;;;;21.14;45.52;97309.25;2058356;28;20207;-75
2022/11/02 12:59:03;;;;;;;18.88;3.28;;;;;;;21.11;46.21;97304.16;2059051;28;20290;-74
2022/11/02 13:00:14;;;;;;;15.32;1.92;;;;;;;22.36;44.83;97312.06;2058217;28;20215;-75
2022/11/02 13:01:39;;;;;;;13.32;2.75;;;;;;;21.96;44.33;97291.38;2055773;28;20217;-75
2022/11/02 13:02:55;;;;;;;12.55;2.20;;;;;;;21.26;44.73;97299.50;2054805;28;20215;-75
2022/11/02 13:04:14;;;;;;;14.48;3.03;;;;;;;21.29;46.56;97312.53;2058162;28;20630;-75
2022/11/02 13:05:20;;;;;;;10.38;2.00;;;;;;;21.09;45.09;97313.22;2058808;28;20283;-73
2022/11/02 13:06:38;;;;;;;8.95;1.75;;;;;;;22.17;43.87;97310.91;2060103;28;20218;-75
2022/11/02 13:07:56;;;;;;;12.30;2.20;;;;;;;21.85;45.71;97302.88;2059023;28;20749;-75
2022/11/02 13:09:05;;;;;;;9.75;2.03;;;;;;;20.61;47.98;97293.78;2057632;28;20323;-75
2022/11/02 13:10:20;;;;;;;9.70;2.10;;;;;;;21.49;44.56;97297.66;2057401;28;20351;-75
2022/11/02 13:11:33;;;;;;;12.38;2.30;;;;;;;21.76;44.30;97300.97;2057016;28;20323;-75
2022/11/02 13:12:36;;;;;;;13.38;2.22;;;;;;;21.57;44.11;97291.78;2055443;28;20262;-75
2022/11/02 13:13:52;;;;;;;8.23;1.90;;;;;;;21.59;44.47;97295.19;2057450;28;20239;-75
2022/11/02 13:14:56;;;;;;;15.15;2.55;;;;;;;22.02;43.40;97280.25;2054762;28;20246;-75
2022/11/02 13:15:59;;;;;;;10.90;1.98;;;;;;;21.89;43.38;97268.91;2062971;28;20233;-75
2022/11/02 13:17:20;;;;;;;13.82;2.15;;;;;;;21.70;44.45;97289.03;2060756;28;20628;-75
2022/11/02 13:18:30;;;;;;;10.57;1.88;;;;;;;21.01;44.23;97282.81;2054682;28;20231;-75
2022/11/02 13:19:40;;;;;;;14.68;2.30;;;;;;;22.13;43.22;97305.97;2052670;28;20662;-75
2022/11/02 13:20:49;;;;;;;9.88;2.45;;;;;;;22.13;43.52;97293.53;2057265;28;20265;-75
2022/11/02 13:21:55;;;;;;;10.90;2.25;;;;;;;22.63;41.92;97306.28;2056318;28;20674;-75
2022/11/02 13:23:02;;;;;;;13.45;2.55;;;;;;;22.24;42.01;97313.06;2059348;28;20289;-75
2022/11/02 13:24:14;;;;;;;7.05;1.83;;;;;;;22.56;42.09;97310.44;2064483;28;20649;-76
2022/11/02 13:25:26;;;;;;;4.20;1.40;;;;;;;21.98;42.77;97295.59;2057677;28;20222;-74
2022/11/02 13:26:36;;;;;;;13.07;1.95;;;;;;;22.49;41.73;97282.66;2062067;28;20716;-76
2022/11/02 13:27:46;;;;;;;10.40;2.53;;;;;;;22.75;41.20;97307.06;2064229;28;20741;-75
2022/11/02 13:28:52;;;;;;;6.95;1.75;;;;;;;22.24;42.83;97311.25;2060071;28;20204;-75
2022/11/02 13:29:59;;;;;;;8.82;1.67;;;;;;;22.14;41.64;97299.66;2058226;28;20286;-75
2022/11/02 13:31:05;;;;;;;8.70;1.70;;;;;;;22.33;42.02;97305.19;2056740;28;20274;-75
2022/11/02 13:32:33;;;;;;;5.75;1.65;;;;;;;22.52;41.88;97287.72;2056123;28;20206;-74
2022/11/02 13:33:48;;;;;;;12.00;2.33;;;;;;;22.83;41.83;97295.81;2058503;28;20277;-74
2022/11/02 13:34:52;;;;;;;11.55;2.05;;;;;;;22.57;42.42;97296.16;2057777;28;20306;-74
2022/11/02 13:35:54;;;;;;;14.98;2.22;;;;;;;22.35;42.32;97284.59;2057264;28;20773;-74
2022/11/02 13:36:55;;;;;;;6.88;2.00;;;;;;;22.04;42.11;97291.59;2055551;28;20287;-74
2022/11/02 13:38:19;;;;;;;13.73;2.70;;;;;;;20.49;44.21;97279.63;2056454;28;20235;-75
2022/11/02 13:39:35;;;;;;;8.02;2.30;;;;;;;21.20;43.62;97290.19;2057233;28;20212;-75
2022/11/02 13:41:08;;;;;;;10.55;2.40;;;;;;;21.16;44.36;97285.25;2057653;28;20247;-74
2022/11/02 13:42:32;;;;;;;6.68;1.60;;;;;;;19.92;45.64;97289.09;2058305;28;20306;-75
2022/11/02 13:44:01;;;;;;;10.07;2.20;;;;;;;21.15;44.24;97286.19;2060234;28;20294;-75
2022/11/02 13:45:18;;;;;;;7.72;2.03;;;;;;;21.13;44.20;97286.31;2058010;28;20206;-75
2022/11/02 13:46:38;;;;;;;9.73;1.88;;;;;;;19.71;46.91;97286.19;2060337;28;20227;-74
2022/11/02 13:48:07;;;;;;;13.38;2.55;;;;;;;20.17;46.55;97284.66;2062380;28;20606;-75
2022/11/02 13:49:23;;;;;;;16.95;2.22;;;;;;;20.59;45.30;97294.84;2056519;28;20255;-74
2022/11/02 13:50:26;;;;;;;15.20;2.00;;;;;;;21.77;43.62;97284.06;2056693;28;20238;-74
2022/11/02 13:51:39;;;;;;;9.07;2.30;;;;;;;22.18;42.73;97287.81;2056810;28;20207;-75
2022/11/02 13:52:46;;;;;;;10.90;2.22;;;;;;;21.78;42.68;97283.91;2063593;28;20298;-77
2022/11/02 13:53:57;;;;;;;13.00;2.67;;;;;;;21.60;43.41;97288.91;2062325;28;20547;-77
2022/11/02 13:55:01;;;;;;;12.18;2.15;;;;;;;21.77;42.75;97281.41;2063193;28;20294;-77
2022/11/02 13:56:19;;;;;;;14.20;2.35;;;;;;;22.22;42.12;97289.28;2066826;28;20325;-76
2022/11/02 13:57:41;;;;;;;19.27;1.60;;;;;;;22.12;41.74;97280.34;2068494;28;20278;-77
2022/11/02 13:58:47;;;;;;;13.18;1.48;;;;;;;22.15;42.06;97275.59;2065422;28;20235;-76
2022/11/02 13:59:49;;;;;;;17.73;2.50;;;;;;;22.08;42.85;97286.88;2057138;28;20240;-76
2022/11/02 14:00:57;;;;;;;12.13;2.35;;;;;;;21.89;42.95;97288.38;2060566;28;20750;-69
2022/11/02 14:02:01;;;;;;;10.65;2.80;;;;;;;22.32;41.88;97279.56;2056359;28;20723;-68
2022/11/02 14:03:16;;;;;;;12.52;2.47;;;;;;;21.40;42.98;97277.16;2051728;28;20231;-69
2022/11/02 14:04:18;;;;;;;13.85;2.70;;;;;;;21.51;43.25;97249.75;2055337;28;20203;-69
2022/11/02 14:05:31;;;;;;;12.40;2.05;;;;;;;20.90;44.43;97266.88;2058844;28;20215;-69
2022/11/02 14:06:44;;;;;;;8.35;1.65;;;;;;;20.87;43.80;97272.41;2055680;28;20275;-68
2022/11/02 14:07:45;;;;;;;5.82;1.98;;;;;;;21.29;43.13;97277.16;2056420;28;20200;-69
2022/11/02 14:08:51;;;;;;;11.57;1.60;;;;;;;21.45;42.92;97276.81;2056238;28;20322;-69
2022/11/02 14:10:19;;;;;;;8.48;2.13;;;;;;;21.82;42.89;97269.41;2053968;28;20283;-69
2022/11/02 14:11:25;;;;;;;6.30;1.60;;;;;;;21.84;41.61;97282.59;2053062;28;20259;-69
2022/11/02 14:12:28;;;;;;;10.98;2.35;;;;;;;22.38;41.74;97272.06;2056096;28;20346;-68
2022/11/02 14:13:57;;;;;;;14.57;2.78;;;;;;;22.85;40.89;97272.53;2048954;28;20232;-68
2022/11/02 14:15:11;;;;;;;9.63;2.60;;;;;;;22.12;41.61;97273.22;2051549;28;20359;-68
2022/11/02 14:16:42;;;;;;;12.05;2.17;;;;;;;22.15;41.73;97269.47;2055827;28;20326;-68
2022/11/02 14:17:52;;;;;;;10.55;2.25;;;;;;;22.04;41.26;97272.16;2055345;28;20302;-68
2022/11/02 14:19:14;;;;;;;8.32;1.95;;;;;;;22.10;41.47;97269.00;2055958;28;20539;-68
2022/11/02 14:20:34;;;;;;;12.95;2.00;;;;;;;22.08;42.01;97269.13;2055954;28;20819;-68
2022/11/02 14:21:40;;;;;;;7.50;1.92;;;;;;;22.24;41.60;97273.19;2054740;28;20763;-69
2022/11/02 14:23:08;;;;;;;12.18;1.90;;;;;;;21.97;41.93;97266.50;2056103;28;20282;-68
2022/11/02 14:24:31;;;;;;;9.38;1.80;;;;;;;21.21;43.01;97269.78;2058528;28;20235;-69
2022/11/02 14:25:46;;;;;;;7.25;2.08;;;;;;;21.63;42.67;97267.38;2058413;28;20206;-68
2022/11/02 14:26:55;;;;;;;8.70;2.00;;;;;;;21.57;42.40;97272.34;2053170;28;20234;-68
2022/11/02 14:28:16;;;;;;;7.57;1.63;;;;;;;20.98;43.01;97274.25;2053750;28;20295;-68
2022/11/02 14:29:41;;;;;;;20.33;2.10;;;;;;;21.51;41.67;97271.00;2051534;28;20238;-68
2022/11/02 14:30:44;;;;;;;4.82;1.40;;;;;;;21.91;41.76;97256.34;2058587;28;20241;-69
2022/11/02 14:31:56;;;;;;;6.93;2.00;;;;;;;21.60;42.13;97272.09;2058830;28;20238;-69
2022/11/02 14:33:08;;;;;;;5.45;1.73;;;;;;;21.60;42.97;97267.66;2057652;28;20233;-68
2022/11/02 14:34:26;;;;;;;9.23;2.47;;;;;;;21.51;42.29;97269.19;2055311;28;20359;-69
2022/11/02 14:35:39;;;;;;;8.60;2.08;;;;;;;21.18;43.04;97265.56;2053863;28;20302;-68
2022/11/02 14:36:41;;;;;;;10.43;2.40;;;;;;;21.23;43.45;97273.19;2054317;28;20215;-69
2022/11/02 14:38:26;;;;;;;8.88;2.20;;;;;;;21.60;42.75;97274.75;2056702;28;20287;-68
2022/11/02 14:39:51;;;;;;;9.27;2.05;;;;;;;21.70;41.59;97267.75;2051927;28;20286;-69
2022/11/02 14:41:15;;;;;;;11.18;1.88;;;;;;;21.26;42.39;97277.41;2056596;28;20706;-69
2022/11/02 14:42:30;;;;;;;13.20;2.13;;;;;;;21.19;42.93;97274.38;2050803;28;20292;-68
2022/11/02 14:43:51;;;;;;;12.75;1.63;;;;;;;21.27;43.22;97273.75;2043518;29;20238;-68
2022/11/02 14:45:06;;;;;;;10.85;1.70;;;;;;;21.72;42.32;97276.44;2043529;29;20201;-68
2022/11/02 14:46:38;;;;;;;8.32;1.77;;;;;;;21.37;43.46;97251.69;2049484;28;20270;-69
2022/11/02 14:47:40;;;;;;;7.38;1.50;;;;;;;20.50;44.01;97246.00;2047734;28;20228;-69
2022/11/02 14:48:51;;;;;;;10.07;1.90;;;;;;;20.82;43.94;97271.91;2049777;28;20299;-68
2022/11/02 14:50:05;;;;;;;11.07;2.50;;;;;;;20.73;43.65;97254.88;2049786;28;20247;-68
2022/11/02 14:51:16;;;;;;;7.65;1.98;;;;;;;21.08;43.43;97272.56;2049660;28;20316;-68
2022/11/02 14:52:27;;;;;;;6.97;1.55;;;;;;;21.27;42.15;97273.75;2048731;28;20208;-68
2022/11/02 14:53:33;;;;;;;6.90;2.15;;;;;;;21.37;43.16;97274.75;2048435;28;20227;-68
2022/11/02 14:54:53;;;;;;;10.38;2.05;;;;;;;21.17;43.27;97271.84;2049628;28;20227;-68
2022/11/02 14:55:55;;;;;;;9.30;2.38;;;;;;;21.33;42.83;97268.84;2054971;28;20314;-68
2022/11/02 14:57:04;;;;;;;7.30;2.00;;;;;;;20.82;42.94;97269.25;2050327;28;20677;-68
2022/11/02 14:58:19;;;;;;;5.53;1.38;;;;;;;20.38;43.99;97255.72;2059263;28;20214;-68
2022/11/02 14:59:44;;;;;;;8.65;1.85;;;;;;;19.99;44.50;97260.38;2059505;28;20194;-68
2022/11/02 15:00:46;;;;;;;5.75;1.48;;;;;;;20.73;43.88;97259.34;2056691;28;20216;-68
2022/11/02 15:01:57;;;;;;;9.38;2.00;;;;;;;20.86;44.25;97255.66;2054135;28;20218;-68
2022/11/02 15:03:00;;;;;;;9.13;1.77;;;;;;;20.64;43.72;97250.25;2062396;28;20282;-68
2022/11/02 15:04:06;;;;;;;8.85;2.40;;;;;;;20.74;43.74;97247.78;2063566;28;20205;-68
2022/11/02 15:05:21;;;;;;;8.98;2.15;;;;;;;20.85;43.88;97247.81;2056283;28;20283;-68
2022/11/02 15:06:26;;;;;;;5.70;1.65;;;;;;;21.05;44.22;97254.19;2059139;28;20230;-68
2022/11/02 15:07:33;;;;;;;5.47;2.28;;;;;;;20.46;44.16;97255.16;2058948;28;20204;-68
2022/11/02 15:08:41;;;;;;;10.88;2.28;;;;;;;20.50;44.34;97253.94;2058876;28;20249;-68
2022/11/02 15:10:00;;;;;;;10.77;1.95;;;;;;;20.68;43.63;97252.56;2064045;28;20282;-68
2022/11/02 15:11:39;;;;;;;14.38;2.40;;;;;;;20.12;43.33;97260.31;2064039;28;20297;-68
2022/11/02 15:12:43;;;;;;;8.52;1.90;;;;;;;20.37;44.61;97254.03;2054764;28;20793;-68
2022/11/02 15:13:46;;;;;;;5.32;1.52;;;;;;;20.24;44.67;97232.91;2057610;28;20321;-68
2022/11/02 15:14:48;;;;;;;6.45;1.77;;;;;;;20.38;44.97;97253.06;2072205;28;20210;-69
2022/11/02 15:15:49;;;;;;;9.93;1.88;;;;;;;20.47;45.07;97248.88;2062359;28;20308;-68
2022/11/02 15:16:53;;;;;;;10.93;1.70;;;;;;;20.34;44.45;97249.81;2051587;28;20210;-68
2022/11/02 15:17:57;;;;;;;8.05;1.88;;;;;;;19.17;46.49;97243.19;2066396;28;20322;-68
2022/11/02 15:19:36;;;;;;;9.73;2.25;;;;;;;19.09;47.58;97235.75;2063263;28;20234;-68
2022/11/02 15:20:38;;;;;;;5.38;1.92;;;;;;;19.27;47.74;97227.47;2062509;28;21515;-68
2022/11/02 15:21:47;;;;;;;7.00;1.80;;;;;;;19.47;47.96;97241.13;2063194;28;20258;-68
2022/11/02 15:22:55;;;;;;;6.38;1.55;;;;;;;19.44;47.63;97244.81;2065660;28;20201;-68
2022/11/02 15:24:12;;;;;;;10.88;2.28;;;;;;;19.24;48.65;97233.81;2064819;28;20217;-68
2022/11/02 15:25:40;;;;;;;7.65;2.08;;;;;;;19.40;47.35;97230.94;2054001;28;20203;-67
2022/11/02 15:26:48;;;;;;;5.25;1.75;;;;;;;19.45;48.09;97243.00;2056295;28;20680;-68
2022/11/02 15:27:53;;;;;;;8.48;2.28;;;;;;;18.05;49.64;97236.53;2059168;28;20671;-68
2022/11/02 15:29:00;;;;;;;12.82;1.80;;;;;;;17.17;52.42;97241.28;2055989;28;20245;-68
2022/11/02 15:30:04;;;;;;;9.23;2.17;;;;;;;16.35;53.51;97211.84;2059788;28;20258;-68
2022/11/02 15:31:15;;;;;;;9.93;2.17;;;;;;;16.80;53.42;97239.88;2060714;28;20315;-68
2022/11/02 15:32:21;;;;;;;16.02;2.20;;;;;;;16.19;54.05;97239.13;2055971;28;20231;-68
2022/11/02 15:33:43;;;;;;;8.15;1.70;;;;;;;16.60;53.96;97240.25;2055324;28;20275;-67
2022/11/02 15:34:47;;;;;;;9.57;2.40;;;;;;;16.79;53.21;97232.91;2053613;28;20540;-68
2022/11/02 15:35:52;;;;;;;11.50;1.80;;;;;;;17.26;52.22;97220.41;2056367;28;20228;-67
2022/11/02 15:36:56;;;;;;;9.27;1.75;;;;;;;17.50;51.01;97234.81;2059461;28;20249;-68
2022/11/02 15:37:59;;;;;;;7.05;2.13;;;;;;;17.27;52.29;97234.47;2057039;28;20200;-68
2022/11/02 15:39:18;;;;;;;7.30;1.95;;;;;;;16.98;52.85;97216.84;2055798;28;20219;-67
2022/11/02 15:40:26;;;;;;;7.75;1.58;;;;;;;16.68;53.83;97201.06;2055090;28;20287;-68
2022/11/02 15:41:39;;;;;;;6.47;2.05;;;;;;;16.73;54.44;97232.44;2053909;28;20291;-67
2022/11/02 15:42:51;;;;;;;9.52;2.10;;;;;;;16.60;54.66;97221.78;2059208;28;20195;-68
2022/11/02 15:44:04;;;;;;;10.63;1.58;;;;;;;16.23;55.03;97223.97;2059077;28;20347;-68
2022/11/02 15:45:19;;;;;;;10.27;2.15;;;;;;;16.19;55.31;97219.81;2060019;28;20207;-67
2022/11/02 15:46:43;;;;;;;7.28;1.90;;;;;;;16.11;56.20;97231.66;2057171;28;20224;-70
2022/11/02 15:48:06;;;;;;;10.05;2.20;;;;;;;15.75;55.14;97224.03;2061320;28;20223;-70
2022/11/02 15:49:24;;;;;;;7.55;1.98;;;;;;;15.69;56.94;97222.56;2074544;28;20206;-70
2022/11/02 15:51:01;;;;;;;8.90;1.85;;;;;;;15.70;57.52;97229.53;2069379;28;20314;-65
2022/11/02 15:52:12;;;;;;;9.38;2.20;;;;;;;15.52;57.85;97228.78;2057640;28;20722;-66
2022/11/02 15:53:29;;;;;;;8.02;1.90;;;;;;;15.30;58.36;97235.25;2059340;28;20290;-66
2022/11/02 15:54:52;;;;;;;11.80;2.55;;;;;;;15.04;58.86;97234.00;2062185;28;20230;-65
2022/11/02 15:56:02;;;;;;;9.18;2.78;;;;;;;14.90;59.62;97226.00;2063557;28;20234;-69
2022/11/02 15:57:35;;;;;;;8.48;2.13;;;;;;;14.74;60.00;97232.09;2058719;28;20629;-69
2022/11/02 15:58:51;;;;;;;9.52;1.88;;;;;;;14.60;60.66;97235.38;2049563;28;20287;-69
2022/11/02 16:00:08;;;;;;;5.70;1.80;;;;;;;14.35;61.28;97233.16;2047122;28;20267;-70
2022/11/02 16:01:14;;;;;;;9.30;2.50;;;;;;;14.23;61.76;97239.03;2065472;28;20360;-70
2022/11/02 16:02:33;;;;;;;15.73;2.63;;;;;;;14.22;62.04;97232.94;2064610;28;20211;-70
2022/11/02 16:03:35;;;;;;;11.68;1.65;;;;;;;13.98;61.96;97222.72;2065257;28;20294;-70
2022/11/02 16:04:40;;;;;;;18.85;2.15;;;;;;;13.82;62.52;97203.38;2061765;28;20231;-70
2022/11/02 16:05:45;;;;;;;9.88;1.67;;;;;;;13.79;63.31;97227.16;2043655;28;20227;-71